createdAt,value
2022-09-01T00:01:26.356Z,46.47
2022-09-01T00:06:34.858Z,46.23
2022-09-01T00:11:42.542Z,46.50
2022-09-01T00:16:50.212Z,46.20
2022-09-01T00:21:57.088Z,45.77
2022-09-01T00:27:01.994Z,46.47
2022-09-01T00:32:07.129Z,46.73
2022-09-01T00:37:12.721Z,46.37
2022-09-01T00:42:19.434Z,46.83
2022-09-01T00:47:25.638Z,46.15
2022-09-01T00:52:37.858Z,46.97
2022-09-01T00:57:43.815Z,46.87
2022-09-01T01:02:52.438Z,46.60
2022-09-01T01:07:58.493Z,46.60
2022-09-01T01:13:05.175Z,46.33
2022-09-01T01:23:19.939Z,45.75
2022-09-01T01:28:29.911Z,46.77
2022-09-01T01:33:42.746Z,46.50
2022-09-01T01:38:50.827Z,47.27
2022-09-01T01:43:57.495Z,47.00
2022-09-01T01:49:03.421Z,46.50
2022-09-01T01:54:09.891Z,45.58
2022-09-01T01:59:16.634Z,46.15
2022-09-01T02:09:26.658Z,45.37
2022-09-01T02:14:31.617Z,45.87
2022-09-01T02:19:39.056Z,45.08
2022-09-01T02:24:45.958Z,45.50
2022-09-01T02:29:53.302Z,45.37
2022-09-01T02:35:01.926Z,45.53
2022-09-01T02:40:10.956Z,45.43
2022-09-01T02:45:16.911Z,46.47
2022-09-01T02:50:24.433Z,45.75
2022-09-01T02:55:30.048Z,45.53
2022-09-01T03:00:37.676Z,45.40
2022-09-01T03:05:43.197Z,45.00
2022-09-01T03:10:49.272Z,45.03
2022-09-01T03:15:54.944Z,45.50
2022-09-01T03:20:59.961Z,45.10
2022-09-01T03:26:05.167Z,45.53
2022-09-01T03:31:10.708Z,45.27
2022-09-01T03:36:18.443Z,45.43
2022-09-01T03:56:45.726Z,45.17
2022-09-01T04:01:51.270Z,45.77
2022-09-01T04:06:56.613Z,46.13
2022-09-01T04:12:01.542Z,45.67
2022-09-01T04:17:27.431Z,45.83
2022-09-01T04:22:32.116Z,45.53
2022-09-01T04:27:38.796Z,45.97
2022-09-01T04:37:51.156Z,45.50
2022-09-01T04:42:56.478Z,45.88
2022-09-01T04:48:03.006Z,45.47
2022-09-01T04:53:10.960Z,45.52
2022-09-01T04:58:19.176Z,45.20
2022-09-01T05:03:25.322Z,45.73
2022-09-01T05:08:32.887Z,45.20
2022-09-01T05:13:40.230Z,45.17
2022-09-01T05:18:47.847Z,45.75
2022-09-01T05:23:54.850Z,46.00
2022-09-01T05:29:03.066Z,46.07
2022-09-01T05:34:09.821Z,45.80
2022-09-01T05:39:16.172Z,45.70
2022-09-01T05:44:26.336Z,46.50
2022-09-01T05:49:33.060Z,46.27
2022-09-01T05:54:38.424Z,46.05
2022-09-01T05:59:43.338Z,46.47
2022-09-01T06:04:50.437Z,46.77
2022-09-01T06:09:57.362Z,47.00
2022-09-01T06:15:03.377Z,46.00
2022-09-01T06:20:12.482Z,46.03
2022-09-01T06:25:18.733Z,46.93
2022-09-01T06:35:30.420Z,46.13
2022-09-01T06:40:38.620Z,46.23
2022-09-01T06:45:50.293Z,46.60
2022-09-01T07:01:18.521Z,51.45
2022-09-01T07:16:51.816Z,49.70
2022-09-01T07:22:08.422Z,51.70
2022-09-01T07:27:07.711Z,49.23
2022-09-01T07:38:47.031Z,48.92
2022-09-01T07:52:39.078Z,55.37
2022-09-01T07:57:46.866Z,54.13
2022-09-01T08:02:57.034Z,49.90
2022-09-01T08:08:00.070Z,50.73
2022-09-01T08:13:05.969Z,50.83
2022-09-01T08:18:14.450Z,48.37
2022-09-01T08:23:21.163Z,48.02
2022-09-01T08:28:27.073Z,48.28
2022-09-01T08:33:34.581Z,49.13
2022-09-01T08:38:40.819Z,48.20
2022-09-01T08:43:52.143Z,48.33
2022-09-01T08:54:18.078Z,48.57
2022-09-01T08:59:25.256Z,48.38
2022-09-01T09:04:51.148Z,48.65
2022-09-01T09:10:10.057Z,48.67
2022-09-01T09:15:26.483Z,47.95
2022-09-01T09:25:36.920Z,47.90
2022-09-01T09:30:42.075Z,47.87
2022-09-01T09:35:48.529Z,48.02
2022-09-01T09:41:26.134Z,48.00
2022-09-01T09:46:30.922Z,48.13
2022-09-01T09:51:37.248Z,48.63
2022-09-01T09:56:46.778Z,48.47
2022-09-01T10:01:53.230Z,48.30
2022-09-01T10:06:58.546Z,48.43
2022-09-01T10:12:05.581Z,48.50
2022-09-01T10:17:15.962Z,48.40
2022-09-01T10:22:22.884Z,48.47
2022-09-01T10:27:34.501Z,48.40
2022-09-01T10:32:52.537Z,48.33
2022-09-01T10:37:55.745Z,48.43
2022-09-01T10:43:21.920Z,48.60
2022-09-01T10:48:36.523Z,48.27
2022-09-01T10:53:47.015Z,48.07
2022-09-01T11:04:32.945Z,48.17
2022-09-01T11:09:44.369Z,48.63
2022-09-01T11:14:55.490Z,48.50
2022-09-01T11:20:23.133Z,48.23
2022-09-01T11:26:19.675Z,48.50
2022-09-01T11:31:09.130Z,48.30
2022-09-01T11:36:26.393Z,48.23
2022-09-01T11:41:35.193Z,48.07
2022-09-01T11:46:42.527Z,48.30
2022-09-01T11:51:49.538Z,48.58
2022-09-01T11:56:55.358Z,48.20
2022-09-01T12:02:01.643Z,48.53
2022-09-01T12:07:16.364Z,48.85
2022-09-01T12:12:36.416Z,48.63
2022-09-01T12:17:41.633Z,48.57
2022-09-01T12:22:48.260Z,47.80
2022-09-01T12:27:54.181Z,48.50
2022-09-01T12:38:24.954Z,47.75
2022-09-01T12:43:37.060Z,48.33
2022-09-01T12:48:42.889Z,48.33
2022-09-01T12:54:04.509Z,48.20
2022-09-01T12:59:15.844Z,48.37
2022-09-01T13:04:33.841Z,48.33
2022-09-01T13:09:39.897Z,48.50
2022-09-01T13:14:46.270Z,48.47
2022-09-01T13:19:51.938Z,48.02
2022-09-01T13:24:57.547Z,47.77
2022-09-01T13:30:05.127Z,47.80
2022-09-01T13:40:39.190Z,47.73
2022-09-01T13:45:45.314Z,47.70
2022-09-01T13:56:04.393Z,48.20
2022-09-01T14:01:11.424Z,47.78
2022-09-01T14:06:17.874Z,47.70
2022-09-01T14:11:23.499Z,47.60
2022-09-01T14:16:30.089Z,47.57
2022-09-01T14:21:36.058Z,47.45
2022-09-01T14:26:44.794Z,47.35
2022-09-01T14:31:52.115Z,47.50
2022-09-01T14:36:59.217Z,47.40
2022-09-01T14:42:06.766Z,47.47
2022-09-01T14:47:19.401Z,47.40
2022-09-01T14:52:22.775Z,47.48
2022-09-01T14:57:30.921Z,48.08
2022-09-01T15:02:36.243Z,47.60
2022-09-01T15:07:42.621Z,47.60
2022-09-01T15:12:49.789Z,48.20
2022-09-01T15:17:55.914Z,47.83
2022-09-01T15:23:02.037Z,47.45
2022-09-01T15:28:07.486Z,48.23
2022-09-01T15:33:15.747Z,47.70
2022-09-01T15:38:21.580Z,48.33
2022-09-01T15:43:27.996Z,48.30
2022-09-01T15:48:33.715Z,48.03
2022-09-01T15:53:39.215Z,48.20
2022-09-01T15:59:00.648Z,47.90
2022-09-01T16:03:52.635Z,47.98
2022-09-01T16:08:57.756Z,48.20
2022-09-01T16:14:03.522Z,47.85
2022-09-01T16:19:32.540Z,48.07
2022-09-01T16:24:44.663Z,47.90
2022-09-01T16:29:55.140Z,47.60
2022-09-01T16:35:05.593Z,47.87
2022-09-01T16:40:42.344Z,47.73
2022-09-01T16:46:00.445Z,47.90
2022-09-01T16:51:14.164Z,47.57
2022-09-01T16:56:27.006Z,47.85
2022-09-01T17:01:52.818Z,47.60
2022-09-01T17:07:02.090Z,47.27
2022-09-01T17:12:17.859Z,47.43
2022-09-01T17:17:27.996Z,47.88
2022-09-01T17:22:35.641Z,47.53
2022-09-01T17:27:53.436Z,47.53
2022-09-01T17:33:13.061Z,48.00
2022-09-01T17:38:29.327Z,47.75
2022-09-01T17:44:03.348Z,48.00
2022-09-01T17:49:25.339Z,48.07
2022-09-01T17:54:48.924Z,48.77
2022-09-01T17:59:59.853Z,47.80
2022-09-01T18:05:24.766Z,48.13
2022-09-01T18:10:35.703Z,48.23
2022-09-01T18:15:54.438Z,50.00
2022-09-01T18:21:08.646Z,50.53
2022-09-01T18:26:17.335Z,47.93
2022-09-01T18:31:38.155Z,48.05
2022-09-01T18:37:10.941Z,48.17
2022-09-01T18:42:22.701Z,48.30
2022-09-01T18:47:36.792Z,47.83
2022-09-01T18:53:02.575Z,47.77
2022-09-01T18:58:12.073Z,47.38
2022-09-01T19:03:20.998Z,48.07
2022-09-01T19:08:41.807Z,47.08
2022-09-01T19:14:02.024Z,47.17
2022-09-01T19:19:15.948Z,46.50
2022-09-01T19:24:40.417Z,47.13
2022-09-01T19:29:54.102Z,47.13
2022-09-01T19:35:02.256Z,46.67
2022-09-01T19:40:10.777Z,46.23
2022-09-01T19:45:24.552Z,46.30
2022-09-01T19:50:32.731Z,46.42
2022-09-01T19:55:47.427Z,46.33
2022-09-01T20:00:58.914Z,46.17
2022-09-01T20:06:17.392Z,47.07
2022-09-01T20:11:38.213Z,47.53
2022-09-01T20:16:46.190Z,46.33
2022-09-01T20:21:51.903Z,46.67
2022-09-01T20:27:03.005Z,47.37
2022-09-01T20:32:09.096Z,46.87
2022-09-01T20:37:23.254Z,46.73
2022-09-01T20:42:47.612Z,45.83
2022-09-01T20:48:03.642Z,46.90
2022-09-01T20:53:26.368Z,46.87
2022-09-01T20:58:52.978Z,46.30
2022-09-01T21:04:15.101Z,46.50
2022-09-01T21:09:35.738Z,46.37
2022-09-01T21:14:51.537Z,47.97
2022-09-01T21:20:14.080Z,46.73
2022-09-01T21:25:20.594Z,46.20
2022-09-01T21:30:26.513Z,46.77
2022-09-01T21:35:32.213Z,46.50
2022-09-01T21:40:37.757Z,46.50
2022-09-01T21:45:43.138Z,46.23
2022-09-01T21:50:50.047Z,45.87
2022-09-01T21:55:55.056Z,46.13
2022-09-01T22:01:02.868Z,46.00
2022-09-01T22:06:12.837Z,45.47
2022-09-01T22:11:18.234Z,45.87
2022-09-01T22:16:23.732Z,46.10
2022-09-01T22:21:30.229Z,46.00
2022-09-01T22:26:36.885Z,45.65
2022-09-01T22:36:49.948Z,45.55
2022-09-01T22:41:55.535Z,45.53
2022-09-01T22:47:01.905Z,45.12
2022-09-01T22:52:06.928Z,44.87
2022-09-01T22:57:12.803Z,45.30
2022-09-01T23:02:19.525Z,45.40
2022-09-01T23:07:25.088Z,44.77
2022-09-01T23:12:30.261Z,44.67
2022-09-01T23:17:37.853Z,44.87
2022-09-01T23:22:44.949Z,44.37
2022-09-01T23:27:50.965Z,43.97
2022-09-01T23:32:57.079Z,44.47
2022-09-01T23:38:03.661Z,44.53
2022-09-01T23:43:10.079Z,44.50
2022-09-01T23:48:17.484Z,44.55
2022-09-01T23:53:26.104Z,44.05
2022-09-01T23:58:32.509Z,44.60
